Time;durP1;ratioP1;P1;durP2;ratioP2;P2;SDS_P1;SDS_P2;PMS_P1;PMS_P2;Temp;Humidity;BMP_temperature;BMP_pressure;BME280_temperature;BME280_humidity;BME280_pressure;Samples;Min_cycle;Max_cycle;Signal;HPM_P1;HPM_P2
2021/05/16 00:02:42;;;;;;;2.00;1.52;;;;;;;10.18;76.71;98854.16;10589430;28;20093;-70
2021/05/16 00:07:44;;;;;;;1.52;1.42;;;;;;;10.40;75.64;98853.97;10589099;28;20048;-71
2021/05/16 00:12:46;;;;;;;1.70;1.55;;;;;;;10.01;77.81;98849.75;10589186;28;20035;-71
2021/05/16 00:17:49;;;;;;;2.75;1.92;;;;;;;10.26;76.54;98846.78;10588764;28;20130;-69
2021/05/16 00:22:51;;;;;;;1.70;1.60;;;;;;;10.21;77.34;98846.16;10571683;28;20039;-68
2021/05/16 00:27:53;;;;;;;1.55;1.45;;;;;;;10.35;76.68;98846.34;10589710;28;20051;-69
2021/05/16 00:32:57;;;;;;;2.20;1.30;;;;;;;10.51;75.10;98839.41;10588824;28;20180;-69
2021/05/16 00:38:01;;;;;;;1.75;1.30;;;;;;;10.25;76.46;98838.06;10588247;28;20445;-69
2021/05/16 00:43:04;;;;;;;1.55;1.45;;;;;;;10.13;77.40;98832.53;10588053;28;20099;-70
2021/05/16 00:48:06;;;;;;;1.23;1.13;;;;;;;10.07;76.73;98831.91;10569371;28;20039;-70
2021/05/16 00:53:10;;;;;;;2.00;1.50;;;;;;;10.34;75.86;98828.88;10586973;28;20081;-69
2021/05/16 00:58:12;;;;;;;1.00;0.90;;;;;;;10.37;75.32;98834.00;10568484;28;20408;-70
2021/05/16 01:03:14;;;;;;;1.25;1.10;;;;;;;10.14;75.87;98837.72;10586956;28;20145;-69
2021/05/16 01:08:16;;;;;;;1.77;0.98;;;;;;;10.18;75.26;98851.53;10568575;28;20046;-69
2021/05/16 01:13:18;;;;;;;0.88;0.80;;;;;;;10.10;75.70;98863.28;10568837;28;20051;-68
2021/05/16 01:18:20;;;;;;;1.80;1.00;;;;;;;10.10;75.93;98859.81;10585847;28;20146;-69
2021/05/16 01:23:31;;;;;;;1.65;1.05;;;;;;;9.76;77.18;98865.81;10567829;28;20042;-68
2021/05/16 01:28:39;;;;;;;2.88;0.98;;;;;;;10.09;76.18;98856.34;10567363;28;20047;-68
2021/05/16 01:33:41;;;;;;;1.55;0.90;;;;;;;10.24;74.46;98853.88;10568124;28;20405;-68
2021/05/16 01:38:42;;;;;;;3.33;0.57;;;;;;;10.10;73.16;98871.16;10585744;28;20067;-68
2021/05/16 01:43:46;;;;;;;0.43;0.43;;;;;;;10.55;68.34;98866.38;10566924;28;20048;-68
2021/05/16 01:48:47;;;;;;;0.95;0.50;;;;;;;10.58;68.67;98860.94;10566522;28;20043;-70
2021/05/16 01:53:49;;;;;;;0.55;0.55;;;;;;;10.76;67.00;98872.31;10567056;28;20400;-69
2021/05/16 01:58:53;;;;;;;0.47;0.30;;;;;;;10.51;68.87;98878.81;10585017;28;20071;-69
2021/05/16 02:03:55;;;;;;;1.58;0.50;;;;;;;10.41;70.02;98881.97;10584319;28;20044;-68
2021/05/16 02:08:59;;;;;;;0.80;0.50;;;;;;;10.20;71.43;98891.72;10583587;28;20036;-70
2021/05/16 02:14:03;;;;;;;2.20;0.50;;;;;;;10.10;72.83;98897.41;10584024;28;20032;-70
2021/05/16 02:19:05;;;;;;;0.80;0.60;;;;;;;10.00;74.10;98892.66;10564844;28;20044;-69
2021/05/16 02:24:12;;;;;;;2.42;1.35;;;;;;;10.24;74.24;98888.91;10566578;28;20045;-70
2021/05/16 02:29:37;;;;;;;1.42;0.70;;;;;;;9.91;76.16;98893.09;10575464;28;20058;-68
2021/05/16 02:34:40;;;;;;;1.05;0.60;;;;;;;10.08;76.15;98886.13;10565511;28;20154;-68
2021/05/16 02:39:45;;;;;;;0.47;0.45;;;;;;;10.09;75.56;98885.22;10565590;28;20111;-69
2021/05/16 02:44:47;;;;;;;2.20;0.68;;;;;;;9.81;77.12;98877.78;10564640;28;20047;-68
2021/05/16 02:49:50;;;;;;;0.85;0.60;;;;;;;10.06;76.29;98881.88;10564103;28;20428;-68
2021/05/16 02:54:52;;;;;;;1.70;0.90;;;;;;;9.92;77.05;98885.16;10584168;28;20040;-68
2021/05/16 02:59:54;;;;;;;2.50;1.00;;;;;;;9.82;77.93;98881.25;10582635;28;20036;-67
2021/05/16 03:04:58;;;;;;;1.25;0.82;;;;;;;9.80;78.17;98888.38;10564812;28;20044;-68
2021/05/16 03:10:00;;;;;;;1.10;1.00;;;;;;;9.86;78.18;98880.19;10564656;28;20063;-68
2021/05/16 03:15:03;;;;;;;1.77;1.08;;;;;;;9.81;78.63;98887.44;10564677;28;20071;-68
2021/05/16 03:20:06;;;;;;;1.55;1.20;;;;;;;9.77;78.67;98897.22;10564239;28;20083;-68
2021/05/16 03:25:10;;;;;;;1.00;0.90;;;;;;;9.77;78.49;98886.72;10572777;28;20136;-69
2021/05/16 03:30:13;;;;;;;1.73;1.27;;;;;;;9.79;78.70;98886.66;10575146;28;20051;-68
2021/05/16 03:35:15;;;;;;;1.75;1.25;;;;;;;9.84;78.40;98892.56;10572652;28;20036;-68
2021/05/16 03:40:17;;;;;;;1.25;1.00;;;;;;;10.11;78.00;98891.22;10571942;28;20427;-68
2021/05/16 03:45:19;;;;;;;2.35;1.10;;;;;;;9.97;78.08;98891.03;10589900;28;20484;-68
2021/05/16 03:50:21;;;;;;;1.20;1.10;;;;;;;10.25;76.10;98895.00;10589954;28;20044;-69
2021/05/16 03:55:22;;;;;;;2.13;1.27;;;;;;;9.94;78.18;98903.47;10571535;28;20082;-69
2021/05/16 04:00:24;;;;;;;2.05;1.52;;;;;;;9.91;78.05;98904.44;10590856;28;20044;-69
2021/05/16 04:05:26;;;;;;;1.98;1.38;;;;;;;10.18;77.42;98904.94;10572285;28;20036;-69
2021/05/16 04:10:27;;;;;;;1.85;1.55;;;;;;;10.07;77.38;98905.44;10572222;28;20051;-70
2021/05/16 04:15:29;;;;;;;1.98;1.60;;;;;;;10.17;77.60;98907.63;10589250;28;20040;-69
2021/05/16 04:20:31;;;;;;;3.42;1.67;;;;;;;10.40;76.52;98909.16;10588575;28;20530;-68
2021/05/16 04:25:33;;;;;;;2.42;1.50;;;;;;;10.25;77.45;98908.13;10569856;28;20050;-69
2021/05/16 04:30:35;;;;;;;3.92;1.88;;;;;;;9.84;78.15;98903.91;10570505;28;20062;-68
2021/05/16 04:35:37;;;;;;;2.67;1.70;;;;;;;10.10;78.05;98909.69;10587852;28;20035;-68
2021/05/16 04:40:39;;;;;;;2.90;1.95;;;;;;;10.17;78.17;98916.34;10589559;28;20569;-68
2021/05/16 04:45:41;;;;;;;3.08;2.47;;;;;;;10.21;77.69;98915.28;10593329;28;20043;-69
2021/05/16 04:50:43;;;;;;;3.05;2.65;;;;;;;10.35;77.77;98917.25;10581272;28;20048;-68
2021/05/16 04:55:45;;;;;;;3.15;2.47;;;;;;;10.27;77.87;98922.91;10573639;28;20063;-69
2021/05/16 05:00:47;;;;;;;3.17;2.80;;;;;;;10.57;77.15;98920.53;10590096;28;20449;-68
2021/05/16 05:05:53;;;;;;;3.92;2.88;;;;;;;10.86;74.76;98931.38;10571463;28;20455;-68
2021/05/16 05:10:55;;;;;;;1.83;1.70;;;;;;;10.65;75.98;98928.03;10590101;28;20043;-69
2021/05/16 05:15:57;;;;;;;1.75;0.60;;;;;;;10.70;71.37;98935.69;10589491;28;20451;-69
2021/05/16 05:21:00;;;;;;;0.68;0.45;;;;;;;11.08;67.08;98939.88;10570778;28;20058;-68
2021/05/16 05:26:01;;;;;;;0.70;0.30;;;;;;;10.84;67.33;98928.81;10571453;28;20035;-69
2021/05/16 05:31:03;;;;;;;1.33;0.40;;;;;;;10.86;67.39;98919.09;10572117;28;20115;-68
2021/05/16 05:36:05;;;;;;;2.78;0.40;;;;;;;11.00;67.01;98926.28;10588815;28;20032;-68
2021/05/16 05:41:07;;;;;;;1.17;0.30;;;;;;;11.04;67.29;98924.34;10587928;28;20056;-68
2021/05/16 05:46:10;;;;;;;0.65;0.22;;;;;;;11.09;66.30;98924.94;10568671;28;20485;-68
2021/05/16 05:51:12;;;;;;;1.02;0.40;;;;;;;11.16;65.34;98918.44;10587985;28;20060;-69
2021/05/16 05:56:14;;;;;;;1.30;0.60;;;;;;;11.25;65.31;98919.75;10588401;28;20039;-69
2021/05/16 06:01:16;;;;;;;0.60;0.30;;;;;;;11.33;64.50;98921.06;10587441;28;20052;-69
2021/05/16 06:06:17;;;;;;;2.15;0.73;;;;;;;11.55;63.50;98914.63;10588680;28;20426;-68
2021/05/16 06:11:19;;;;;;;1.50;0.40;;;;;;;11.61;63.11;98930.97;10591443;28;20067;-68
2021/05/16 06:16:21;;;;;;;1.50;0.57;;;;;;;11.99;62.81;98919.28;10599861;22;20074;-72
2021/05/16 06:21:23;;;;;;;1.95;0.40;;;;;;;11.91;62.11;98930.28;10584756;28;20039;-72
2021/05/16 06:26:25;;;;;;;2.15;0.30;;;;;;;11.72;62.60;98932.16;10587210;28;20100;-72
2021/05/16 06:31:28;;;;;;;2.25;0.52;;;;;;;11.60;63.58;98944.22;10587356;28;20043;-72
2021/05/16 06:36:30;;;;;;;0.93;0.30;;;;;;;11.64;63.80;98940.44;10590243;28;20047;-73
2021/05/16 06:41:33;;;;;;;4.20;0.43;;;;;;;11.68;63.29;98947.25;10588181;28;20452;-72
2021/05/16 06:46:38;;;;;;;1.48;0.50;;;;;;;11.88;63.23;98948.88;10584101;28;20378;-72
2021/05/16 06:51:41;;;;;;;2.25;0.40;;;;;;;12.15;62.50;98935.97;10589435;28;20040;-72
2021/05/16 06:56:43;;;;;;;3.05;0.60;;;;;;;12.32;60.93;98940.28;10590994;28;20046;-73
2021/05/16 07:01:45;;;;;;;2.25;0.82;;;;;;;12.40;60.11;98934.59;10602220;28;20504;-73
2021/05/16 07:06:47;;;;;;;2.83;0.50;;;;;;;12.97;59.68;98930.38;10581644;28;20066;-73
2021/05/16 07:11:50;;;;;;;3.00;0.90;;;;;;;13.35;59.56;98935.16;10593440;28;20047;-73
2021/05/16 07:16:52;;;;;;;2.63;0.90;;;;;;;13.27;57.33;98921.56;10574652;28;20035;-73
2021/05/16 07:21:54;;;;;;;4.22;1.10;;;;;;;13.83;55.76;98930.44;10592077;28;20055;-74
2021/05/16 07:26:56;;;;;;;4.28;0.75;;;;;;;13.81;56.13;98929.69;10573229;28;20044;-73
2021/05/16 07:31:58;;;;;;;5.78;0.63;;;;;;;13.51;56.96;98933.28;10593126;28;20051;-73
2021/05/16 07:37:01;;;;;;;3.53;1.10;;;;;;;13.25;57.05;98929.59;10556014;28;20040;-74
2021/05/16 07:42:02;;;;;;;2.22;0.57;;;;;;;13.64;56.05;98925.47;10573992;28;20051;-72
2021/05/16 07:47:05;;;;;;;2.17;0.80;;;;;;;14.13;54.72;98920.59;10592598;28;20047;-73
2021/05/16 07:52:06;;;;;;;2.63;0.80;;;;;;;14.20;55.32;98918.38;10570596;28;20047;-71
2021/05/16 07:57:08;;;;;;;3.65;0.88;;;;;;;14.46;53.74;98921.97;10572862;28;20048;-70
2021/05/16 08:02:10;;;;;;;1.48;0.73;;;;;;;14.46;53.55;98921.13;10590737;28;20441;-71
2021/05/16 08:07:12;;;;;;;2.25;0.50;;;;;;;14.53;53.51;98931.25;10589845;28;20464;-72
2021/05/16 08:12:15;;;;;;;3.13;1.10;;;;;;;14.49;53.58;98929.75;10589784;28;20488;-73
2021/05/16 08:17:17;;;;;;;1.65;0.70;;;;;;;14.30;52.94;98931.88;10589516;28;20041;-73
2021/05/16 08:22:20;;;;;;;1.83;0.77;;;;;;;15.05;51.41;98927.78;10589916;28;20403;-73
2021/05/16 08:27:22;;;;;;;1.95;0.47;;;;;;;15.33;51.10;98925.91;10571521;28;20055;-74
2021/05/16 08:32:25;;;;;;;8.82;1.33;;;;;;;15.45;51.79;98922.41;10555676;28;20046;-73
2021/05/16 08:37:27;;;;;;;2.72;0.63;;;;;;;16.02;50.06;98929.84;10569977;28;20040;-71
2021/05/16 08:42:29;;;;;;;1.20;0.50;;;;;;;15.85;48.61;98941.69;10589031;28;20078;-74
2021/05/16 08:47:32;;;;;;;3.65;0.68;;;;;;;15.84;48.49;98933.81;10591688;28;20043;-72
2021/05/16 08:52:34;;;;;;;1.23;0.50;;;;;;;15.71;50.01;98920.59;10594507;28;20044;-73
2021/05/16 08:57:41;;;;;;;1.33;0.60;;;;;;;16.26;49.31;98921.94;10588975;28;20476;-73
2021/05/16 09:03:06;;;;;;;2.28;0.60;;;;;;;16.63;46.33;98914.78;10571004;28;20048;-73
2021/05/16 09:08:35;;;;;;;3.10;0.60;;;;;;;17.07;45.50;98909.75;10588847;28;20036;-73
2021/05/16 09:13:40;;;;;;;1.42;0.50;;;;;;;17.06;44.12;98914.25;10584868;28;20058;-73
2021/05/16 09:18:55;;;;;;;2.38;0.55;;;;;;;17.07;46.00;98920.38;10588063;28;20142;-73
2021/05/16 09:23:59;;;;;;;2.30;0.80;;;;;;;17.14;44.77;98919.81;10587518;28;20087;-72
2021/05/16 09:29:30;;;;;;;2.53;0.80;;;;;;;17.27;44.27;98919.72;10571069;28;20062;-70
2021/05/16 09:34:39;;;;;;;2.72;0.90;;;;;;;17.29;42.97;98920.44;10588404;28;20396;-72
2021/05/16 09:39:44;;;;;;;1.50;0.60;;;;;;;17.64;41.67;98917.69;10588503;28;20044;-73
2021/05/16 09:44:48;;;;;;;2.80;0.70;;;;;;;17.73;41.50;98916.13;10597317;28;20046;-72
2021/05/16 09:49:52;;;;;;;2.45;0.80;;;;;;;17.80;41.78;98908.56;10586429;28;20043;-73
2021/05/16 09:54:59;;;;;;;1.27;0.40;;;;;;;17.40;42.84;98909.84;10587867;28;20462;-72
2021/05/16 10:00:06;;;;;;;2.45;0.65;;;;;;;17.61;43.73;98904.63;10575179;28;20039;-71
2021/05/16 10:05:10;;;;;;;1.67;0.63;;;;;;;17.74;42.89;98912.53;10586034;28;20063;-72
2021/05/16 10:10:12;;;;;;;1.50;0.60;;;;;;;17.37;44.91;98906.56;10586576;28;20043;-71
2021/05/16 10:15:23;;;;;;;2.55;0.65;;;;;;;17.60;43.92;98894.13;10567849;28;20031;-72
2021/05/16 10:20:27;;;;;;;2.47;0.60;;;;;;;18.27;42.95;98898.56;10585565;28;20044;-69
2021/05/16 10:25:43;;;;;;;1.92;0.70;;;;;;;18.31;42.46;98902.66;10586442;28;20032;-70
2021/05/16 10:31:09;;;;;;;1.95;0.80;;;;;;;18.21;40.38;98901.72;10585491;28;20411;-70
2021/05/16 10:36:11;;;;;;;2.33;0.60;;;;;;;18.68;41.89;98889.81;10585466;28;20110;-70
2021/05/16 10:41:23;;;;;;;2.38;0.82;;;;;;;17.60;42.50;98899.44;10585197;28;20040;-72
2021/05/16 10:46:37;;;;;;;1.48;0.70;;;;;;;17.49;42.67;98896.81;10565791;28;20471;-71
2021/05/16 10:51:39;;;;;;;1.20;0.57;;;;;;;17.94;41.10;98880.88;10567142;28;20051;-69
2021/05/16 10:56:41;;;;;;;2.30;0.68;;;;;;;18.61;39.01;98891.31;10568168;28;20036;-70
2021/05/16 11:01:42;;;;;;;3.42;0.60;;;;;;;19.07;37.35;98887.47;10585068;28;20072;-71
2021/05/16 11:06:46;;;;;;;2.30;0.60;;;;;;;19.59;36.67;98881.16;10584186;28;20035;-69
2021/05/16 11:11:48;;;;;;;2.65;0.50;;;;;;;18.99;37.62;98882.81;10565366;28;20101;-68
2021/05/16 11:16:56;;;;;;;1.75;0.65;;;;;;;18.12;40.88;98874.06;10584217;28;20489;-68
2021/05/16 11:22:16;;;;;;;2.40;0.70;;;;;;;18.12;39.70;98866.06;10583720;28;20047;-70
2021/05/16 11:27:21;;;;;;;2.65;0.82;;;;;;;18.05;40.17;98868.38;10583719;28;20513;-69
2021/05/16 11:32:31;;;;;;;2.63;0.65;;;;;;;18.10;41.06;98866.19;10583208;28;20050;-69
2021/05/16 11:37:33;;;;;;;3.28;0.80;;;;;;;17.73;41.39;98868.28;10585027;28;20051;-69
2021/05/16 11:42:36;;;;;;;2.58;0.73;;;;;;;17.92;41.51;98862.34;10585250;28;20051;-69
2021/05/16 11:47:40;;;;;;;2.88;0.65;;;;;;;18.67;41.24;98854.34;10592886;28;20100;-69
2021/05/16 11:52:42;;;;;;;3.40;0.90;;;;;;;18.90;40.00;98856.94;10592476;28;20059;-69
2021/05/16 11:57:46;;;;;;;2.40;0.82;;;;;;;19.22;41.50;98854.19;10573274;28;20031;-69
2021/05/16 12:02:47;;;;;;;2.72;0.85;;;;;;;19.61;38.72;98847.25;10592123;28;20126;-70
2021/05/16 12:07:49;;;;;;;1.55;0.88;;;;;;;19.48;38.45;98840.41;10589622;28;20080;-70
2021/05/16 12:12:52;;;;;;;1.65;0.50;;;;;;;19.21;38.11;98833.84;10591343;28;20057;-69
2021/05/16 12:17:54;;;;;;;2.22;0.68;;;;;;;19.46;37.03;98835.22;10587719;22;20042;-73
2021/05/16 12:22:58;;;;;;;1.33;0.80;;;;;;;20.16;35.87;98831.66;10589279;28;20078;-73
2021/05/16 12:28:02;;;;;;;2.85;0.43;;;;;;;19.50;36.51;98830.47;10570126;28;20043;-73
2021/05/16 12:33:04;;;;;;;3.88;1.17;;;;;;;19.10;38.82;98823.28;10588694;28;20044;-72
2021/05/16 12:38:10;;;;;;;2.33;0.73;;;;;;;19.13;37.99;98821.22;10571550;28;20040;-72
2021/05/16 12:43:18;;;;;;;1.55;0.63;;;;;;;19.15;38.85;98821.06;10590762;28;20097;-73
2021/05/16 12:48:22;;;;;;;2.22;0.80;;;;;;;18.77;38.93;98819.00;10570793;28;20114;-74
2021/05/16 12:53:29;;;;;;;2.55;0.60;;;;;;;19.30;37.83;98808.22;10569549;28;20110;-73
2021/05/16 12:58:39;;;;;;;1.02;0.60;;;;;;;19.14;38.94;98814.91;10569880;28;20134;-73
2021/05/16 13:03:41;;;;;;;2.05;0.57;;;;;;;18.98;39.38;98811.84;10588233;28;20040;-73
2021/05/16 13:08:50;;;;;;;1.63;0.60;;;;;;;19.27;40.09;98812.00;10588527;28;20043;-73
2021/05/16 13:14:04;;;;;;;2.35;0.60;;;;;;;19.36;38.62;98805.03;10589449;28;20036;-73
2021/05/16 13:19:06;;;;;;;1.75;0.60;;;;;;;19.59;38.26;98801.19;10588823;28;20530;-73
2021/05/16 13:24:09;;;;;;;2.67;0.70;;;;;;;19.82;37.78;98791.16;10571414;28;20650;-73
2021/05/16 13:29:12;;;;;;;1.70;0.70;;;;;;;18.95;40.03;98792.63;10590985;28;20499;-73
2021/05/16 13:34:23;;;;;;;1.98;0.82;;;;;;;18.67;40.25;98781.66;10569354;28;20124;-74
2021/05/16 13:39:27;;;;;;;2.38;0.80;;;;;;;18.33;43.02;98787.19;10587960;28;20123;-72
2021/05/16 13:44:30;;;;;;;3.25;0.88;;;;;;;17.52;43.67;98782.31;10586773;28;20019;-73
2021/05/16 13:49:32;;;;;;;2.85;0.60;;;;;;;17.12;44.03;98782.81;10568812;28;20051;-72
2021/05/16 13:54:34;;;;;;;2.08;0.88;;;;;;;17.75;43.90;98785.78;10587181;28;20042;-74
2021/05/16 13:59:37;;;;;;;2.53;0.63;;;;;;;18.08;43.70;98776.88;10586399;28;20040;-72
2021/05/16 14:04:38;;;;;;;1.67;0.40;;;;;;;18.29;42.83;98768.94;10585613;28;20044;-74
2021/05/16 14:09:40;;;;;;;1.13;0.43;;;;;;;18.70;44.35;98762.81;10567393;28;20042;-73
2021/05/16 14:14:42;;;;;;;1.90;0.52;;;;;;;18.60;42.45;98760.06;10584670;28;20445;-73
2021/05/16 14:19:44;;;;;;;1.40;0.50;;;;;;;18.64;41.91;98753.50;10550143;28;20051;-74
2021/05/16 14:24:48;;;;;;;1.30;0.50;;;;;;;19.14;40.63;98744.81;10568213;28;20386;-74
2021/05/16 14:29:50;;;;;;;1.05;0.40;;;;;;;19.30;40.50;98742.50;10552126;28;20039;-73
2021/05/16 14:34:52;;;;;;;1.00;0.30;;;;;;;19.13;40.06;98743.97;10569870;28;20085;-74
2021/05/16 14:39:54;;;;;;;1.17;0.40;;;;;;;18.71;41.36;98743.19;10587054;28;20039;-74
2021/05/16 14:44:58;;;;;;;0.80;0.35;;;;;;;18.49;41.50;98722.00;10588450;28;20046;-74
2021/05/16 14:50:00;;;;;;;0.32;0.30;;;;;;;19.02;41.51;98724.56;10588810;28;20036;-74
2021/05/16 14:55:02;;;;;;;0.95;0.30;;;;;;;19.81;39.59;98719.31;10589307;28;20036;-73
2021/05/16 15:00:07;;;;;;;0.98;0.32;;;;;;;19.85;39.59;98707.41;10589016;28;20401;-74
2021/05/16 15:05:09;;;;;;;0.68;0.35;;;;;;;19.58;40.86;98698.22;10588307;28;20073;-73
2021/05/16 15:10:11;;;;;;;0.85;0.43;;;;;;;19.45;41.49;98710.13;10587951;28;20492;-73
2021/05/16 15:15:14;;;;;;;1.38;0.50;;;;;;;19.27;43.24;98700.13;10587578;28;20059;-74
2021/05/16 15:20:19;;;;;;;1.15;0.50;;;;;;;19.48;41.76;98699.16;10593264;28;20040;-74
2021/05/16 15:25:21;;;;;;;0.60;0.30;;;;;;;17.45;52.45;98734.16;10578290;28;20035;-75
2021/05/16 15:30:25;;;;;;;1.92;0.50;;;;;;;15.47;60.18;98721.03;10578681;28;20040;-74
2021/05/16 15:35:27;;;;;;;1.50;0.60;;;;;;;15.66;61.17;98705.50;10577426;28;20394;-73
2021/05/16 15:40:29;;;;;;;1.98;0.38;;;;;;;15.57;59.48;98700.84;10596330;28;20496;-74
2021/05/16 15:45:31;;;;;;;0.75;0.32;;;;;;;15.43;61.46;98693.06;10596670;28;20065;-73
2021/05/16 15:50:33;;;;;;;0.50;0.30;;;;;;;15.32;63.11;98677.97;10578115;28;20035;-74
2021/05/16 15:55:41;;;;;;;0.57;0.35;;;;;;;15.61;62.31;98674.03;10578276;28;20035;-73
2021/05/16 16:00:43;;;;;;;0.60;0.50;;;;;;;15.57;63.30;98664.63;10595917;28;20036;-74
2021/05/16 16:05:45;;;;;;;2.05;1.10;;;;;;;15.49;65.90;98661.69;10595540;28;20040;-74
2021/05/16 16:10:46;;;;;;;1.23;0.82;;;;;;;15.61;64.52;98663.44;10594857;28;20039;-74
2021/05/16 16:15:48;;;;;;;0.88;0.40;;;;;;;15.99;60.64;98669.50;10596765;28;20036;-75
2021/05/16 16:20:50;;;;;;;3.35;0.60;;;;;;;15.75;60.97;98662.44;10595910;28;20051;-74
2021/05/16 16:25:52;;;;;;;1.20;0.55;;;;;;;15.71;60.69;98668.06;10594891;28;20042;-73
2021/05/16 16:30:59;;;;;;;1.38;0.90;;;;;;;15.50;61.75;98676.63;10593057;28;20046;-76
2021/05/16 16:36:00;;;;;;;;;;;;;;;15.48;61.58;98690.94;10595280;28;20040;-74
2021/05/16 16:41:05;;;;;;;0.70;0.50;;;;;;;15.74;59.51;98671.34;10596856;28;19920;-75
2021/05/16 16:46:07;;;;;;;1.55;0.50;;;;;;;15.81;60.71;98669.09;10597136;28;20039;-75
2021/05/16 16:51:08;;;;;;;2.33;1.15;;;;;;;16.04;63.62;98672.66;10596001;28;20047;-74
2021/05/16 16:56:10;;;;;;;15.85;14.45;;;;;;;15.31;65.64;98663.03;10596117;28;20484;-73
2021/05/16 17:01:14;;;;;;;3.88;2.20;;;;;;;15.41;67.48;98657.94;10558513;28;20073;-73
2021/05/16 17:06:17;;;;;;;3.95;1.95;;;;;;;15.22;69.12;98653.13;10574120;28;20052;-73
2021/05/16 17:11:19;;;;;;;2.08;1.20;;;;;;;15.23;68.89;98655.69;10591993;28;20067;-74
2021/05/16 17:16:21;;;;;;;1.77;1.00;;;;;;;15.60;66.68;98661.75;10592991;28;20039;-74
2021/05/16 17:21:23;;;;;;;2.47;0.50;;;;;;;15.27;59.90;98667.72;10592043;28;20072;-73
2021/05/16 17:26:25;;;;;;;0.95;0.30;;;;;;;14.78;59.81;98667.72;10572945;28;20052;-74
2021/05/16 17:31:26;;;;;;;0.65;0.30;;;;;;;14.65;55.85;98704.78;10573371;28;20048;-75
2021/05/16 17:36:32;;;;;;;2.50;0.70;;;;;;;13.23;62.45;98722.16;10573778;28;20093;-72
2021/05/16 17:41:34;;;;;;;2.10;0.60;;;;;;;11.46;68.09;98755.44;10591251;28;20403;-73
2021/05/16 17:46:36;;;;;;;1.80;0.50;;;;;;;11.11;69.34;98749.50;10591234;28;20089;-73
2021/05/16 17:51:38;;;;;;;1.38;0.35;;;;;;;11.06;70.87;98772.56;10573317;28;20044;-72
2021/05/16 17:56:40;;;;;;;2.00;0.50;;;;;;;11.15;71.47;98782.59;10592182;28;20322;-72
2021/05/16 18:01:45;;;;;;;1.33;0.47;;;;;;;11.04;72.59;98780.56;10572424;28;20519;-71
2021/05/16 18:06:48;;;;;;;0.70;0.40;;;;;;;10.98;71.41;98786.16;10574901;28;20048;-73
2021/05/16 18:11:50;;;;;;;1.40;0.47;;;;;;;11.08;72.53;98795.25;10593058;28;20053;-72
2021/05/16 18:16:52;;;;;;;1.55;0.50;;;;;;;11.38;71.16;98781.38;10594276;28;20036;-74
2021/05/16 18:21:54;;;;;;;1.27;0.50;;;;;;;11.51;71.09;98761.34;10573561;28;20039;-73
2021/05/16 18:26:56;;;;;;;1.67;0.50;;;;;;;11.50;73.92;98741.19;10590130;28;20043;-73
2021/05/16 18:31:59;;;;;;;1.45;0.77;;;;;;;11.78;73.30;98723.84;10594423;28;20112;-73
2021/05/16 18:37:01;;;;;;;1.77;0.40;;;;;;;11.97;73.50;98721.88;10574950;28;20100;-75
2021/05/16 18:42:05;;;;;;;2.05;0.88;;;;;;;12.06;72.83;98726.59;10591258;28;20051;-74
2021/05/16 18:47:07;;;;;;;1.00;0.73;;;;;;;11.82;73.69;98730.63;10591613;28;20082;-72
2021/05/16 18:52:10;;;;;;;1.05;0.52;;;;;;;11.54;74.78;98724.31;10571981;28;20519;-72
2021/05/16 18:57:15;;;;;;;1.02;0.50;;;;;;;11.60;72.53;98731.03;10600476;28;20043;-72
2021/05/16 19:02:17;;;;;;;1.23;0.60;;;;;;;11.51;72.46;98723.63;10601021;28;20039;-73
2021/05/16 19:07:19;;;;;;;1.55;0.80;;;;;;;11.27;74.05;98725.84;10600432;28;20046;-74
2021/05/16 19:12:21;;;;;;;3.10;1.30;;;;;;;11.27;73.67;98731.09;10604606;28;20043;-73
2021/05/16 19:17:24;;;;;;;3.25;1.33;;;;;;;11.08;74.30;98726.88;10571242;28;20043;-74
2021/05/16 19:22:25;;;;;;;2.90;1.08;;;;;;;11.17;74.06;98733.41;10583592;28;20131;-72
2021/05/16 19:27:27;;;;;;;1.58;0.90;;;;;;;10.98;74.52;98736.19;10597525;28;20036;-73
2021/05/16 19:32:36;;;;;;;2.45;1.10;;;;;;;10.78;75.87;98734.63;10586836;28;20432;-72
2021/05/16 19:37:39;;;;;;;0.95;0.73;;;;;;;10.54;76.80;98742.03;10605297;28;20040;-72
2021/05/16 19:42:41;;;;;;;3.30;1.00;;;;;;;10.52;77.42;98743.88;10601811;28;20040;-72
2021/05/16 19:47:43;;;;;;;1.55;0.90;;;;;;;10.57;77.17;98749.72;10602499;28;20092;-72
2021/05/16 19:53:02;;;;;;;2.10;1.00;;;;;;;10.96;76.06;98748.56;10591971;28;20044;-72
2021/05/16 19:58:11;;;;;;;1.40;1.10;;;;;;;10.98;75.30;98751.09;10597576;28;20147;-72
2021/05/16 20:03:13;;;;;;;2.60;1.40;;;;;;;10.68;77.08;98749.19;10581571;28;20070;-72
2021/05/16 20:08:17;;;;;;;1.85;1.23;;;;;;;10.60;77.00;98748.75;10602074;28;20439;-73
2021/05/16 20:13:19;;;;;;;1.67;1.20;;;;;;;10.35;77.67;98741.25;10599357;28;20047;-73
2021/05/16 20:18:21;;;;;;;3.08;2.42;;;;;;;10.50;77.35;98739.66;10595109;28;20065;-72
2021/05/16 20:23:23;;;;;;;4.00;1.67;;;;;;;10.55;77.04;98730.59;10600303;28;20078;-72
2021/05/16 20:28:28;;;;;;;2.25;1.48;;;;;;;10.17;77.46;98724.66;10594570;28;20400;-73
2021/05/16 20:33:32;;;;;;;2.85;1.55;;;;;;;10.03;78.05;98722.72;10597154;28;20074;-72
2021/05/16 20:38:34;;;;;;;3.08;1.63;;;;;;;9.91;78.26;98719.84;10595927;28;20047;-71
2021/05/16 20:43:36;;;;;;;4.57;1.70;;;;;;;9.90;78.27;98720.78;10592390;28;20104;-72
2021/05/16 20:48:38;;;;;;;1.63;1.40;;;;;;;9.92;78.22;98721.56;10601717;28;20032;-71
2021/05/16 20:53:40;;;;;;;1.95;1.35;;;;;;;9.90;78.37;98713.75;10572041;28;20077;-73
2021/05/16 20:58:46;;;;;;;3.15;1.77;;;;;;;9.92;78.03;98701.44;10573287;28;20036;-73
2021/05/16 21:03:50;;;;;;;2.70;1.63;;;;;;;9.84;78.17;98712.31;10571348;28;20040;-72
2021/05/16 21:08:52;;;;;;;2.15;1.67;;;;;;;9.78;78.56;98719.63;10572736;28;20100;-71
2021/05/16 21:13:54;;;;;;;2.67;2.20;;;;;;;9.97;78.27;98732.69;10571150;28;20138;-72
2021/05/16 21:18:57;;;;;;;2.42;2.15;;;;;;;9.81;78.02;98725.56;10568901;28;20044;-72
2021/05/16 21:23:58;;;;;;;2.38;1.90;;;;;;;9.73;78.55;98717.22;10588741;28;20127;-72
2021/05/16 21:29:00;;;;;;;2.97;2.10;;;;;;;9.61;78.91;98728.34;10589379;28;20086;-72
2021/05/16 21:34:02;;;;;;;2.35;1.65;;;;;;;9.51;79.01;98727.06;10588743;28;20039;-71
2021/05/16 21:39:04;;;;;;;2.58;1.58;;;;;;;9.50;78.93;98723.59;10590330;28;20074;-72
2021/05/16 21:44:06;;;;;;;2.42;1.98;;;;;;;9.47;78.63;98717.63;10587538;28;20040;-71
2021/05/16 21:49:08;;;;;;;2.95;1.67;;;;;;;9.45;78.61;98714.25;10551487;28;20043;-71
2021/05/16 21:54:11;;;;;;;3.05;1.67;;;;;;;9.93;76.93;98721.50;10586698;28;20097;-72
2021/05/16 21:59:12;;;;;;;2.03;1.80;;;;;;;9.83;76.88;98720.25;10568036;28;20118;-72
2021/05/16 22:04:14;;;;;;;2.50;1.45;;;;;;;9.65;77.25;98718.50;10587293;28;20126;-73
2021/05/16 22:09:16;;;;;;;5.82;1.42;;;;;;;9.73;76.77;98719.00;10587424;28;20039;-72
2021/05/16 22:14:18;;;;;;;1.35;1.10;;;;;;;9.39;77.54;98715.41;10586422;28;20097;-71
2021/05/16 22:19:20;;;;;;;1.90;1.17;;;;;;;9.34;77.86;98714.75;10568241;28;20047;-70
2021/05/16 22:24:22;;;;;;;1.27;1.05;;;;;;;9.23;77.48;98717.91;10567727;28;20047;-71
2021/05/16 22:29:25;;;;;;;1.33;1.10;;;;;;;9.10;78.15;98725.47;10567115;28;20047;-72
2021/05/16 22:34:27;;;;;;;1.48;1.08;;;;;;;9.12;78.14;98728.06;10585896;28;20043;-72
2021/05/16 22:39:29;;;;;;;3.70;1.20;;;;;;;9.29;77.17;98728.06;10586570;28;20040;-71
2021/05/16 22:44:31;;;;;;;1.63;1.45;;;;;;;8.91;78.08;98724.66;10585916;28;20051;-72
2021/05/16 22:49:32;;;;;;;1.17;1.00;;;;;;;8.82;78.27;98712.81;10567707;28;20040;-71
2021/05/16 22:54:34;;;;;;;3.53;1.60;;;;;;;8.76;78.13;98715.69;10568433;28;20511;-71
2021/05/16 22:59:36;;;;;;;2.08;1.35;;;;;;;8.71;78.39;98722.06;10586787;28;20114;-71
2021/05/16 23:04:37;;;;;;;3.10;1.33;;;;;;;8.69;78.73;98713.44;10565852;28;20075;-72
2021/05/16 23:09:40;;;;;;;1.30;1.20;;;;;;;8.79;78.66;98702.47;10583726;28;20118;-72
2021/05/16 23:14:43;;;;;;;2.55;1.10;;;;;;;8.68;78.41;98701.28;10567992;28;20055;-71
2021/05/16 23:19:45;;;;;;;2.55;1.20;;;;;;;9.17;77.30;98696.38;10585078;28;20046;-72
2021/05/16 23:24:47;;;;;;;1.42;0.98;;;;;;;8.82;77.52;98691.84;10566561;28;20420;-73
2021/05/16 23:29:49;;;;;;;1.48;1.30;;;;;;;9.02;76.94;98690.91;10566322;28;20511;-72
2021/05/16 23:34:51;;;;;;;2.85;1.48;;;;;;;8.91;76.60;98685.34;10584893;28;20096;-72